Milan, Italy
Current Conditions -  °F | °C
As of 4:20 AM on Sunday 23 Nov 2014 (Local Time) from LIML Reporting Station
Light Fog Light Fog  
Wind Chill: 46°   Ceiling: 6000
Heat Index: 46°   Visibility: 0.93mi
Dew Point: 46°   Wind: 0mph
Humidity: 100%   Direction: NA
Pressure: 30.3"   Gusts: NA
Location:  45.46°N, 9.19°E
Report Text: LIML 230320Z 00000KT 1500 BCFG BKN060 08/08 Q1026 NOSIG
Loading
Personal Weather Stations






























Interactive Weather Map New forecast layout! Learn more

10-Day Weather Forecast

Advertisements
Track Severe Weather on mobile